Glade Park, Colorado
Current Conditions -  °F | °C
As of 8:53 PM on Saturday 25 Oct 2014 (Local Time) from KGJT Reporting Station
Clear Clear  
Wind Chill: 58°   Ceiling: Unl
Heat Index: 58°   Visibility: 10mi
Dew Point: 32°   Wind: 0mph
Humidity: 37%   Direction: NA
Pressure: 30.07"   Gusts: NA
Location:  38.99°N, 108.74°W
Report Text: KGJT 260253Z 00000KT 10SM CLR 14/00 A3007 RMK AO2 SLP148 T01440000 51003
Loading
Personal Weather Stations






























Interactive Weather Map
Tropical Storm Tracking
New forecast layout! Learn more

10-Day Weather Forecast

Advertisements
Track Severe Weather on mobile